Forside
METAR-TAF:

METAR-TAF

Lufthavne :

Chariton Municipal Airport

Chariton, Iowa, USA

Breddekreds: 41-02N, længdekreds: 093-22W, højde: 320 m

Aktuelle vejr

Denne rapport blev lavet for 19 minutter siden, kl. 16:15 UTC
Vind 7 kt fra nordnordøst
Temperatur 9°C
Fugtighed 53%
Tryk 1029 hPa
Sigt: 16.1 km
skyfri

METAR: KCNC 231615Z AUTO 03007KT 10SM CLR 09/00 A3039 RMK AO2

Tid: 11:34 (16:34 UTC)


TAF: fraværende

Vejrobservationer og prognoser fra mere end 4000 lufthavne (METAR og TAF).

De gule og røde prikker repræsenterer de meteorologiske stationer.

Flyt musen over at se navnet på stationen.

Så klik over at se vejr observationer og prognoser.

At skifte det kort: Klik på de grønne knapper med et sort kors for at zoome ind; på den grønne knap med en bindestreg for at zoome ud; eller på de grønne pile for tilstødende kort.


METAR-TAF: